Time;durP1;ratioP1;P1;durP2;ratioP2;P2;SDS_P1;SDS_P2;PMS_P1;PMS_P2;Temp;Humidity;BMP_temperature;BMP_pressure;BME280_temperature;BME280_humidity;BME280_pressure;Samples;Min_cycle;Max_cycle;Signal;HPM_P1;HPM_P2
2022/03/07 00:00:04;;;;;;;;;;;;;;;;;;5082752;28;19913;-76
2022/03/07 00:02:50;;;;;;;;;;;;;;;;;;5087300;28;19908;-76
2022/03/07 00:05:37;;;;;;;;;;;;;;;;;;5074208;28;19915;-75
2022/03/07 00:08:23;;;;;;;;;;;;;;;;;;5070328;28;19912;-75
2022/03/07 00:11:10;;;;;;;;;;;;;;;;;;5089534;28;19916;-74
2022/03/07 00:13:56;;;;;;;;;;;;;;;;;;5068283;28;19999;-75
2022/03/07 00:16:43;;;;;;;;;;;;;;;;;;5083407;28;19947;-75
2022/03/07 00:19:29;;;;;;;;;;;;;;;;;;5087393;28;19927;-75
2022/03/07 00:22:16;;;;;;;;;;;;;;;;;;5093843;28;20290;-75
2022/03/07 00:25:02;;;;;;;;;;;;;;;;;;5107862;28;19927;-76
2022/03/07 00:27:49;;;;;;;;;;;;;;;;;;5101314;28;19912;-76
2022/03/07 00:30:35;;;;;;;;;;;;;;;;;;5104294;28;19912;-76
2022/03/07 00:33:22;;;;;;;;;;;;;;;;;;5103079;28;19918;-76
2022/03/07 00:36:08;;;;;;;;;;;;;;;;;;5104198;28;19915;-75
2022/03/07 00:38:55;;;;;;;;;;;;;;;;;;5103895;28;19919;-76
2022/03/07 00:41:41;;;;;;;;;;;;;;;;;;5091699;28;19924;-76
2022/03/07 00:44:28;;;;;;;;;;;;;;;;;;5099621;28;19931;-76
2022/03/07 00:47:14;;;;;;;;;;;;;;;;;;5102919;28;19923;-75
2022/03/07 00:50:01;;;;;;;;;;;;;;;;;;5100552;28;19937;-76
2022/03/07 00:52:47;;;;;;;;;;;;;;;;;;5107392;28;19908;-75
2022/03/07 00:55:34;;;;;;;;;;;;;;;;;;5103097;28;19960;-74
2022/03/07 00:58:20;;;;;;;;;;;;;;;;;;5106478;28;19920;-75
2022/03/07 01:01:07;;;;;;;;;;;;;;;;;;5104381;28;19919;-75
2022/03/07 01:03:53;;;;;;;;;;;;;;;;;;5109097;28;20346;-75
2022/03/07 01:06:40;;;;;;;;;;;;;;;;;;5101332;28;19919;-74
2022/03/07 01:09:26;;;;;;;;;;;;;;;;;;5101471;28;19931;-74
2022/03/07 01:12:13;;;;;;;;;;;;;;;;;;5106969;28;20006;-74
2022/03/07 01:14:59;;;;;;;;;;;;;;;;;;5107712;28;20373;-74
2022/03/07 01:17:46;;;;;;;;;;;;;;;;;;5088773;28;19911;-75
2022/03/07 01:20:32;;;;;;;;;;;;;;;;;;5111327;28;19912;-75
2022/03/07 01:23:18;;;;;;;;;;;;;;;;;;5107431;28;19907;-74
2022/03/07 01:26:05;;;;;;;;;;;;;;;;;;5110608;28;19927;-75
2022/03/07 01:28:51;;;;;;;;;;;;;;;;;;5110366;28;19912;-75
2022/03/07 01:31:38;;;;;;;;;;;;;;;;;;5105677;28;19916;-75
2022/03/07 01:34:24;;;;;;;;;;;;;;;;;;5103220;28;19951;-74
2022/03/07 01:37:11;;;;;;;;;;;;;;;;;;5110849;28;19912;-74
2022/03/07 01:39:57;;;;;;;;;;;;;;;;;;5104894;28;19926;-74
2022/03/07 01:42:44;;;;;;;;;;;;;;;;;;5109590;28;19911;-74
2022/03/07 01:45:30;;;;;;;;;;;;;;;;;;5110473;28;19931;-74
2022/03/07 01:48:17;;;;;;;;;;;;;;;;;;5095429;28;19907;-75
2022/03/07 01:51:03;;;;;;;;;;;;;;;;;;5107309;28;19920;-75
2022/03/07 01:53:50;;;;;;;;;;;;;;;;;;5106939;28;19915;-75
2022/03/07 01:56:36;;;;;;;;;;;;;;;;;;5103538;28;20363;-74
2022/03/07 01:59:23;;;;;;;;;;;;;;;;;;5109777;28;19927;-74
2022/03/07 02:02:09;;;;;;;;;;;;;;;;;;5099517;28;19908;-74
2022/03/07 02:04:56;;;;;;;;;;;;;;;;;;5108535;28;19916;-75
2022/03/07 02:07:43;;;;;;;;;;;;;;;;;;5107324;28;20017;-74
2022/03/07 02:10:29;;;;;;;;;;;;;;;;;;5105485;28;19923;-74
2022/03/07 02:13:16;;;;;;;;;;;;;;;;;;5105514;27;19920;-75
2022/03/07 02:16:02;;;;;;;;;;;;;;;;;;5111276;28;19908;-74
2022/03/07 02:18:49;;;;;;;;;;;;;;;;;;5107921;28;19925;-74
2022/03/07 02:21:35;;;;;;;;;;;;;;;;;;5099979;28;19908;-74
2022/03/07 02:24:22;;;;;;;;;;;;;;;;;;5109677;28;19920;-74
2022/03/07 02:27:09;;;;;;;;;;;;;;;;;;5109126;28;19912;-73
2022/03/07 02:29:55;;;;;;;;;;;;;;;;;;5095106;28;19914;-73
2022/03/07 02:32:42;;;;;;;;;;;;;;;;;;5090567;28;19912;-73
2022/03/07 02:35:28;;;;;;;;;;;;;;;;;;5104945;28;19908;-74
2022/03/07 02:38:16;;;;;;;;;;;;;;;;;;5094442;28;19941;-75
2022/03/07 02:41:02;;;;;;;;;;;;;;;;;;5109140;28;20229;-75
2022/03/07 02:43:49;;;;;;;;;;;;;;;;;;5108375;28;19915;-75
2022/03/07 02:46:35;;;;;;;;;;;;;;;;;;5109681;28;19912;-75
2022/03/07 02:49:22;;;;;;;;;;;;;;;;;;5106651;28;19919;-75
2022/03/07 02:52:08;;;;;;;;;;;;;;;;;;5101487;28;19915;-75
2022/03/07 02:54:55;;;;;;;;;;;;;;;;;;5107965;28;20307;-75
2022/03/07 02:57:41;;;;;;;;;;;;;;;;;;5088391;28;19915;-76
2022/03/07 03:00:28;;;;;;;;;;;;;;;;;;5107462;28;19926;-74
2022/03/07 03:03:14;;;;;;;;;;;;;;;;;;5101673;28;20298;-74
2022/03/07 03:06:01;;;;;;;;;;;;;;;;;;5101200;28;19918;-74
2022/03/07 03:08:48;;;;;;;;;;;;;;;;;;5106655;28;19911;-74
2022/03/07 03:11:34;;;;;;;;;;;;;;;;;;5102908;28;19915;-75
2022/03/07 03:14:21;;;;;;;;;;;;;;;;;;5108999;27;20286;-75
2022/03/07 03:17:07;;;;;;;;;;;;;;;;;;5108082;28;19923;-75
2022/03/07 03:19:54;;;;;;;;;;;;;;;;;;5106178;28;20346;-75
2022/03/07 03:22:40;;;;;;;;;;;;;;;;;;5109679;28;19912;-75
2022/03/07 03:25:27;;;;;;;;;;;;;;;;;;5100082;28;20010;-75
2022/03/07 03:28:13;;;;;;;;;;;;;;;;;;5108421;28;19908;-75
2022/03/07 03:31:00;;;;;;;;;;;;;;;;;;5100750;28;19949;-75
2022/03/07 03:33:46;;;;;;;;;;;;;;;;;;5090870;28;19919;-75
2022/03/07 03:36:34;;;;;;;;;;;;;;;;;;5099121;28;19969;-75
2022/03/07 03:39:20;;;;;;;;;;;;;;;;;;5094670;28;19946;-75
2022/03/07 03:42:07;;;;;;;;;;;;;;;;;;5106093;28;20363;-75
2022/03/07 03:44:53;;;;;;;;;;;;;;;;;;5097658;28;19915;-75
2022/03/07 03:47:40;;;;;;;;;;;;;;;;;;5085743;28;19915;-75
2022/03/07 03:50:26;;;;;;;;;;;;;;;;;;5099141;28;19911;-75
2022/03/07 03:53:13;;;;;;;;;;;;;;;;;;5108313;28;20256;-75
2022/03/07 03:55:59;;;;;;;;;;;;;;;;;;5097676;28;20300;-75
2022/03/07 03:58:46;;;;;;;;;;;;;;;;;;5107851;28;19916;-76
2022/03/07 04:01:32;;;;;;;;;;;;;;;;;;5105676;28;19916;-75
2022/03/07 04:04:19;;;;;;;;;;;;;;;;;;5107598;28;19919;-75
2022/03/07 04:07:05;;;;;;;;;;;;;;;;;;5100605;28;19926;-76
2022/03/07 04:09:52;;;;;;;;;;;;;;;;;;5089323;28;20393;-75
2022/03/07 04:12:38;;;;;;;;;;;;;;;;;;5104891;28;19918;-75
2022/03/07 04:15:26;;;;;;;;;;;;;;;;;;5101449;27;19920;-76
2022/03/07 04:18:12;;;;;;;;;;;;;;;;;;5088455;28;19922;-77
2022/03/07 04:20:59;;;;;;;;;;;;;;;;;;5107395;28;19915;-75
2022/03/07 04:23:45;;;;;;;;;;;;;;;;;;5103989;28;19916;-76
2022/03/07 04:26:31;;;;;;;;;;;;;;;;;;5105143;28;19908;-75
2022/03/07 04:29:18;;;;;;;;;;;;;;;;;;5104787;28;19918;-76
2022/03/07 04:32:04;;;;;;;;;;;;;;;;;;5106425;28;19926;-75
2022/03/07 04:34:51;;;;;;;;;;;;;;;;;;5104879;28;19922;-76
2022/03/07 04:37:40;;;;;;;;;;;;;;;;;;5103857;28;19930;-76
2022/03/07 04:40:26;;;;;;;;;;;;;;;;;;5104968;28;20418;-77
2022/03/07 04:43:13;;;;;;;;;;;;;;;;;;5105980;28;19918;-77
2022/03/07 04:45:59;;;;;;;;;;;;;;;;;;5105755;28;19916;-76
2022/03/07 04:48:46;;;;;;;;;;;;;;;;;;5102324;28;19915;-74
2022/03/07 04:51:32;;;;;;;;;;;;;;;;;;5106876;28;19916;-74
2022/03/07 04:54:19;;;;;;;;;;;;;;;;;;5111131;28;19915;-75
2022/03/07 04:57:05;;;;;;;;;;;;;;;;;;5111464;28;19912;-75
2022/03/07 04:59:52;;;;;;;;;;;;;;;;;;5109645;28;19930;-75
2022/03/07 05:02:38;;;;;;;;;;;;;;;;;;5094771;28;19911;-75
2022/03/07 05:05:25;;;;;;;;;;;;;;;;;;5089701;28;19916;-75
2022/03/07 05:08:11;;;;;;;;;;;;;;;;;;5108755;28;19935;-76
2022/03/07 05:10:58;;;;;;;;;;;;;;;;;;5107515;28;19918;-75
2022/03/07 05:13:44;;;;;;;;;;;;;;;;;;5102867;28;19911;-74
2022/03/07 05:16:31;;;;;;;;;;;;;;;;;;5095584;28;20260;-75
2022/03/07 05:19:17;;;;;;;;;;;;;;;;;;5114722;27;19923;-75
2022/03/07 05:22:04;;;;;;;;;;;;;;;;;;5100065;28;19912;-75
2022/03/07 05:24:50;;;;;;;;;;;;;;;;;;5106542;28;20311;-75
2022/03/07 05:27:37;;;;;;;;;;;;;;;;;;5108008;28;19916;-75
2022/03/07 05:30:23;;;;;;;;;;;;;;;;;;5100962;28;19912;-75
2022/03/07 05:33:12;;;;;;;;;;;;;;;;;;5106078;28;20204;-75
2022/03/07 05:35:58;;;;;;;;;;;;;;;;;;5108248;27;19922;-75
2022/03/07 05:38:45;;;;;;;;;;;;;;;;;;5100937;28;19934;-76
2022/03/07 05:41:31;;;;;;;;;;;;;;;;;;5106582;28;20283;-75
2022/03/07 05:44:18;;;;;;;;;;;;;;;;;;5110310;28;20282;-75
2022/03/07 05:47:05;;;;;;;;;;;;;;;;;;5099797;28;19938;-75
2022/03/07 05:49:51;;;;;;;;;;;;;;;;;;5094579;28;19927;-75
2022/03/07 05:52:38;;;;;;;;;;;;;;;;;;5109939;28;19915;-76
2022/03/07 05:55:24;;;;;;;;;;;;;;;;;;5108692;28;19912;-75
2022/03/07 05:58:11;;;;;;;;;;;;;;;;;;5090175;28;20286;-75
2022/03/07 06:00:57;;;;;;;;;;;;;;;;;;5084982;28;19912;-76
2022/03/07 06:03:44;;;;;;;;;;;;;;;;;;5107879;27;19908;-76
2022/03/07 06:06:30;;;;;;;;;;;;;;;;;;5105625;28;19915;-75
2022/03/07 06:09:17;;;;;;;;;;;;;;;;;;5108527;28;19911;-75
2022/03/07 06:12:03;;;;;;;;;;;;;;;;;;5109985;28;20489;-75
2022/03/07 06:14:50;;;;;;;;;;;;;;;;;;5101487;28;19946;-75
2022/03/07 06:17:36;;;;;;;;;;;;;;;;;;5089454;28;19927;-76
2022/03/07 06:20:23;;;;;;;;;;;;;;;;;;5110077;28;19916;-75
2022/03/07 06:23:11;;;;;;;;;;;;;;;;;;5107423;28;19919;-76
2022/03/07 06:25:58;;;;;;;;;;;;;;;;;;5109994;28;19931;-75
2022/03/07 06:28:44;;;;;;;;;;;;;;;;;;5110538;28;19930;-75
2022/03/07 06:31:31;;;;;;;;;;;;;;;;;;5101321;28;19908;-75
2022/03/07 06:34:17;;;;;;;;;;;;;;;;;;5103181;28;19920;-75
2022/03/07 06:37:04;;;;;;;;;;;;;;;;;;5108492;28;19911;-75
2022/03/07 06:39:50;;;;;;;;;;;;;;;;;;5105227;28;20303;-75
2022/03/07 06:42:37;;;;;;;;;;;;;;;;;;5104870;28;20371;-75
2022/03/07 06:45:23;;;;;;;;;;;;;;;;;;5108828;28;19919;-75
2022/03/07 06:48:10;;;;;;;;;;;;;;;;;;5105316;28;19922;-74
2022/03/07 06:50:56;;;;;;;;;;;;;;;;;;5103204;28;19908;-74
2022/03/07 06:53:43;;;;;;;;;;;;;;;;;;5094096;28;19907;-75
2022/03/07 06:56:29;;;;;;;;;;;;;;;;;;5105144;28;19912;-76
2022/03/07 06:59:15;;;;;;;;;;;;;;;;;;5094055;28;20311;-74
2022/03/07 07:02:02;;;;;;;;;;;;;;;;;;5088180;28;19916;-75
2022/03/07 07:04:49;;;;;;;;;;;;;;;;;;5106674;28;19908;-75
2022/03/07 07:07:36;;;;;;;;;;;;;;;;;;5104426;28;19926;-78
2022/03/07 07:10:22;;;;;;;;;;;;;;;;;;5105618;28;19911;-77
2022/03/07 07:13:14;;;;;;;;;;;;;;;;;;5104300;28;20366;-77
2022/03/07 07:16:00;;;;;;;;;;;;;;;;;;5107279;28;19911;-76
2022/03/07 07:18:47;;;;;;;;;;;;;;;;;;5104513;28;19982;-78
2022/03/07 07:21:33;;;;;;;;;;;;;;;;;;5102316;28;19922;-77
2022/03/07 07:24:19;;;;;;;;;;;;;;;;;;5101020;28;19920;-77
2022/03/07 07:27:09;;;;;;;;;;;;;;;;;;5100780;28;20390;-77
2022/03/07 07:29:55;;;;;;;;;;;;;;;;;;5108244;28;19919;-77
2022/03/07 07:32:42;;;;;;;;;;;;;;;;;;5103524;28;19926;-77
2022/03/07 07:35:28;;;;;;;;;;;;;;;;;;5102378;28;19923;-76
2022/03/07 07:38:15;;;;;;;;;;;;;;;;;;5106486;28;20395;-76
2022/03/07 07:41:01;;;;;;;;;;;;;;;;;;5104944;28;19918;-78
2022/03/07 07:43:49;;;;;;;;;;;;;;;;;;5098918;28;19915;-78
2022/03/07 07:46:35;;;;;;;;;;;;;;;;;;5090596;28;19927;-78
2022/03/07 07:49:24;;;;;;;;;;;;;;;;;;5108737;28;19923;-78
2022/03/07 07:52:10;;;;;;;;;;;;;;;;;;5102122;28;20362;-78
2022/03/07 07:54:57;;;;;;;;;;;;;;;;;;5105044;28;19907;-78
2022/03/07 07:57:43;;;;;;;;;;;;;;;;;;5109833;28;19912;-78
2022/03/07 08:00:30;;;;;;;;;;;;;;;;;;5108702;28;20295;-78
2022/03/07 08:03:16;;;;;;;;;;;;;;;;;;5098655;28;19912;-77
2022/03/07 08:06:03;;;;;;;;;;;;;;;;;;5104664;28;19939;-75
2022/03/07 08:08:49;;;;;;;;;;;;;;;;;;5090085;28;19918;-77
2022/03/07 08:11:36;;;;;;;;;;;;;;;;;;5105897;28;20394;-77
2022/03/07 08:14:23;;;;;;;;;;;;;;;;;;5108740;28;19916;-77
2022/03/07 08:17:11;;;;;;;;;;;;;;;;;;5103430;28;19912;-77
2022/03/07 08:19:57;;;;;;;;;;;;;;;;;;5101888;28;19928;-77
2022/03/07 08:22:44;;;;;;;;;;;;;;;;;;5102871;28;20300;-77
2022/03/07 08:25:32;;;;;;;;;;;;;;;;;;5104392;28;19931;-77
2022/03/07 08:28:19;;;;;;;;;;;;;;;;;;5086841;28;20022;-77
2022/03/07 08:31:05;;;;;;;;;;;;;;;;;;5101438;28;19915;-77
2022/03/07 08:33:52;;;;;;;;;;;;;;;;;;5102594;28;19931;-77
2022/03/07 08:36:38;;;;;;;;;;;;;;;;;;5108868;28;19912;-77
2022/03/07 08:39:25;;;;;;;;;;;;;;;;;;5088395;28;19920;-77
2022/03/07 08:42:12;;;;;;;;;;;;;;;;;;5102111;28;19908;-77
2022/03/07 08:44:58;;;;;;;;;;;;;;;;;;5106992;28;19912;-77
2022/03/07 08:47:45;;;;;;;;;;;;;;;;;;5105543;28;19916;-77
2022/03/07 08:50:32;;;;;;;;;;;;;;;;;;5105549;28;19967;-77
2022/03/07 08:53:18;;;;;;;;;;;;;;;;;;5103806;28;19912;-77
2022/03/07 08:56:05;;;;;;;;;;;;;;;;;;5106200;28;19961;-77
2022/03/07 08:58:51;;;;;;;;;;;;;;;;;;5102013;28;19918;-77
2022/03/07 09:01:38;;;;;;;;;;;;;;;;;;5089424;28;20393;-77
2022/03/07 09:04:24;;;;;;;;;;;;;;;;;;5103899;28;19914;-77
2022/03/07 09:07:11;;;;;;;;;;;;;;;;;;5103369;28;19912;-78
2022/03/07 09:09:57;;;;;;;;;;;;;;;;;;5097666;28;19915;-78
2022/03/07 09:12:44;;;;;;;;;;;;;;;;;;5104181;28;19922;-77
2022/03/07 09:15:30;;;;;;;;;;;;;;;;;;5107165;28;19912;-77
2022/03/07 09:18:17;;;;;;;;;;;;;;;;;;5090611;28;19912;-77
2022/03/07 09:21:03;;;;;;;;;;;;;;;;;;5082152;28;19918;-77
2022/03/07 09:23:50;;;;;;;;;;;;;;;;;;5107904;28;20373;-77
2022/03/07 09:26:36;;;;;;;;;;;;;;;;;;5088080;28;19930;-77
2022/03/07 09:29:24;;;;;;;;;;;;;;;;;;5102334;28;20360;-77
2022/03/07 09:32:10;;;;;;;;;;;;;;;;;;5106041;28;19922;-78
2022/03/07 09:34:57;;;;;;;;;;;;;;;;;;5088478;28;19918;-77
2022/03/07 09:37:43;;;;;;;;;;;;;;;;;;5102371;28;19916;-77
2022/03/07 09:40:30;;;;;;;;;;;;;;;;;;5103604;28;19924;-77
2022/03/07 09:43:16;;;;;;;;;;;;;;;;;;5111236;28;19922;-78
2022/03/07 09:46:03;;;;;;;;;;;;;;;;;;5094950;28;19931;-77
2022/03/07 09:48:49;;;;;;;;;;;;;;;;;;5111190;28;20292;-77
2022/03/07 09:51:36;;;;;;;;;;;;;;;;;;5109314;28;19916;-77
2022/03/07 09:54:23;;;;;;;;;;;;;;;;;;5093394;28;19912;-77
2022/03/07 09:57:10;;;;;;;;;;;;;;;;;;5101285;28;20663;-77
2022/03/07 09:59:57;;;;;;;;;;;;;;;;;;5109482;28;19939;-77
2022/03/07 10:02:43;;;;;;;;;;;;;;;;;;5109894;28;19912;-77
2022/03/07 10:05:30;;;;;;;;;;;;;;;;;;5108725;28;20299;-77
2022/03/07 10:08:16;;;;;;;;;;;;;;;;;;5109760;28;19927;-77
2022/03/07 10:11:03;;;;;;;;;;;;;;;;;;5094419;28;19918;-78
2022/03/07 10:13:49;;;;;;;;;;;;;;;;;;5095802;28;20290;-78
2022/03/07 10:16:36;;;;;;;;;;;;;;;;;;5110353;28;19923;-77
2022/03/07 10:19:22;;;;;;;;;;;;;;;;;;5100413;28;19917;-77
2022/03/07 10:22:09;;;;;;;;;;;;;;;;;;5108605;28;19931;-78
2022/03/07 10:24:55;;;;;;;;;;;;;;;;;;5108523;28;19930;-77
2022/03/07 10:27:44;;;;;;;;;;;;;;;;;;5110884;28;19916;-78
2022/03/07 10:30:30;;;;;;;;;;;;;;;;;;5105912;28;19912;-78
2022/03/07 10:33:17;;;;;;;;;;;;;;;;;;5103565;28;19912;-80
2022/03/07 10:36:03;;;;;;;;;;;;;;;;;;5104019;28;20264;-77
2022/03/07 10:38:50;;;;;;;;;;;;;;;;;;5087863;28;19916;-75
2022/03/07 10:41:36;;;;;;;;;;;;;;;;;;5099547;28;19922;-75
2022/03/07 10:44:23;;;;;;;;;;;;;;;;;;5102592;28;19912;-72
2022/03/07 10:47:09;;;;;;;;;;;;;;;;;;5102193;28;19923;-74
2022/03/07 10:49:56;;;;;;;;;;;;;;;;;;5103134;28;19916;-74
2022/03/07 10:52:42;;;;;;;;;;;;;;;;;;5110413;28;19915;-74
2022/03/07 10:55:29;;;;;;;;;;;;;;;;;;5102321;28;19907;-74
2022/03/07 10:58:15;;;;;;;;;;;;;;;;;;5104021;28;19918;-73
2022/03/07 11:01:04;;;;;;;;;;;;;;;;;;5105228;28;19923;-74
2022/03/07 11:03:50;;;;;;;;;;;;;;;;;;5101758;27;19918;-74
2022/03/07 11:06:37;;;;;;;;;;;;;;;;;;5089068;28;20295;-74
2022/03/07 11:09:24;;;;;;;;;;;;;;;;;;5089199;28;19912;-74
2022/03/07 11:12:10;;;;;;;;;;;;;;;;;;5106694;28;19920;-75
2022/03/07 11:14:57;;;;;;;;;;;;;;;;;;5107882;28;19916;-75
2022/03/07 11:17:44;;;;;;;;;;;;;;;;;;5110384;28;19915;-75
2022/03/07 11:20:30;;;;;;;;;;;;;;;;;;5109640;28;19931;-74
2022/03/07 11:23:17;;;;;;;;;;;;;;;;;;5101438;28;19949;-74
2022/03/07 11:26:04;;;;;;;;;;;;;;;;;;5107836;28;19927;-76
2022/03/07 11:28:51;;;;;;;;;;;;;;;;;;5096833;28;19919;-78
2022/03/07 11:31:39;;;;;;;;;;;;;;;;;;5103914;28;19919;-78
2022/03/07 11:34:25;;;;;;;;;;;;;;;;;;5086496;28;19919;-78
2022/03/07 11:37:11;;;;;;;;;;;;;;;;;;5101814;28;19908;-76
2022/03/07 11:39:58;;;;;;;;;;;;;;;;;;5108289;28;19920;-77
2022/03/07 11:42:45;;;;;;;;;;;;;;;;;;5104092;28;19927;-76
2022/03/07 11:45:31;;;;;;;;;;;;;;;;;;5107741;28;19912;-77
2022/03/07 11:48:18;;;;;;;;;;;;;;;;;;5093542;28;19916;-77
2022/03/07 11:51:04;;;;;;;;;;;;;;;;;;5102024;28;19918;-77
2022/03/07 11:53:51;;;;;;;;;;;;;;;;;;5109419;28;19907;-77
2022/03/07 11:56:37;;;;;;;;;;;;;;;;;;5104632;28;19934;-76
2022/03/07 11:59:24;;;;;;;;;;;;;;;;;;5107827;28;19947;-77
2022/03/07 12:02:10;;;;;;;;;;;;;;;;;;5104359;28;19912;-76
2022/03/07 12:04:57;;;;;;;;;;;;;;;;;;5105321;28;19923;-78
2022/03/07 12:07:43;;;;;;;;;;;;;;;;;;5099978;28;19923;-78
2022/03/07 12:10:30;;;;;;;;;;;;;;;;;;5091029;28;19912;-78
2022/03/07 12:13:16;;;;;;;;;;;;;;;;;;5106454;28;19916;-78
2022/03/07 12:16:02;;;;;;;;;;;;;;;;;;5107802;28;19908;-78
2022/03/07 12:18:49;;;;;;;;;;;;;;;;;;5104474;28;20319;-78
2022/03/07 12:21:35;;;;;;;;;;;;;;;;;;5105739;28;19916;-78
2022/03/07 12:24:22;;;;;;;;;;;;;;;;;;5097424;28;19916;-78
2022/03/07 12:27:08;;;;;;;;;;;;;;;;;;5109312;28;19918;-78
2022/03/07 12:29:55;;;;;;;;;;;;;;;;;;5105256;28;19926;-78
2022/03/07 12:32:41;;;;;;;;;;;;;;;;;;5092450;28;20303;-78
2022/03/07 12:35:28;;;;;;;;;;;;;;;;;;5108756;28;19915;-78
2022/03/07 12:38:14;;;;;;;;;;;;;;;;;;5103122;28;19918;-78
2022/03/07 12:41:01;;;;;;;;;;;;;;;;;;5102144;28;19927;-78
2022/03/07 12:43:49;;;;;;;;;;;;;;;;;;5108436;28;20275;-78
2022/03/07 12:46:35;;;;;;;;;;;;;;;;;;5109072;28;20363;-78
2022/03/07 12:49:21;;;;;;;;;;;;;;;;;;5107190;28;19908;-78
2022/03/07 12:52:08;;;;;;;;;;;;;;;;;;5108996;28;19912;-78
2022/03/07 12:54:55;;;;;;;;;;;;;;;;;;5087671;28;20351;-77
2022/03/07 12:57:44;;;;;;;;;;;;;;;;;;5084638;28;19911;-78
2022/03/07 13:00:32;;;;;;;;;;;;;;;;;;5092120;28;19919;-78
2022/03/07 13:03:18;;;;;;;;;;;;;;;;;;5108957;28;19908;-78
2022/03/07 13:06:05;;;;;;;;;;;;;;;;;;5108946;28;19907;-76
2022/03/07 13:08:51;;;;;;;;;;;;;;;;;;5090167;28;19935;-78
2022/03/07 13:11:41;;;;;;;;;;;;;;;;;;5100967;28;19912;-78
2022/03/07 13:14:28;;;;;;;;;;;;;;;;;;5110554;28;19923;-78
2022/03/07 13:17:17;;;;;;;;;;;;;;;;;;5110390;28;19908;-77
2022/03/07 13:20:04;;;;;;;;;;;;;;;;;;5085515;28;20233;-76
2022/03/07 13:22:50;;;;;;;;;;;;;;;;;;5110335;28;19915;-78
2022/03/07 13:25:37;;;;;;;;;;;;;;;;;;5109952;28;19923;-78
2022/03/07 13:28:23;;;;;;;;;;;;;;;;;;5108307;28;20264;-78
2022/03/07 13:31:10;;;;;;;;;;;;;;;;;;5089516;28;19916;-77
2022/03/07 13:33:57;;;;;;;;;;;;;;;;;;5110062;28;20410;-77
2022/03/07 13:36:44;;;;;;;;;;;;;;;;;;5107513;28;19912;-77
2022/03/07 13:39:30;;;;;;;;;;;;;;;;;;5106843;28;19920;-77
2022/03/07 13:42:17;;;;;;;;;;;;;;;;;;5105183;28;20394;-77
2022/03/07 13:45:03;;;;;;;;;;;;;;;;;;5106213;28;20291;-77
2022/03/07 13:47:50;;;;;;;;;;;;;;;;;;5108892;28;20005;-77
2022/03/07 13:50:36;;;;;;;;;;;;;;;;;;5105756;28;19908;-77
2022/03/07 13:53:23;;;;;;;;;;;;;;;;;;5094305;28;20288;-77
2022/03/07 13:56:10;;;;;;;;;;;;;;;;;;5109934;28;20275;-77
2022/03/07 13:58:56;;;;;;;;;;;;;;;;;;5110127;28;19915;-77
2022/03/07 14:01:43;;;;;;;;;;;;;;;;;;5108733;28;20534;-77
2022/03/07 14:04:29;;;;;;;;;;;;;;;;;;5105211;28;19922;-77
2022/03/07 14:07:15;;;;;;;;;;;;;;;;;;5110864;28;19916;-77
2022/03/07 14:10:02;;;;;;;;;;;;;;;;;;5108966;28;20362;-78
2022/03/07 14:12:48;;;;;;;;;;;;;;;;;;5093891;28;19919;-79
2022/03/07 14:15:35;;;;;;;;;;;;;;;;;;5110598;28;19922;-78
2022/03/07 14:18:21;;;;;;;;;;;;;;;;;;5110233;28;19918;-78
2022/03/07 14:21:08;;;;;;;;;;;;;;;;;;5100626;28;19920;-78
2022/03/07 14:23:54;;;;;;;;;;;;;;;;;;5106536;28;19908;-77
2022/03/07 14:26:41;;;;;;;;;;;;;;;;;;5105037;28;19927;-78
2022/03/07 14:29:28;;;;;;;;;;;;;;;;;;5111182;28;20272;-78
2022/03/07 14:32:15;;;;;;;;;;;;;;;;;;5110563;28;20633;-78
2022/03/07 14:35:01;;;;;;;;;;;;;;;;;;5098686;28;19908;-78
2022/03/07 14:37:48;;;;;;;;;;;;;;;;;;5088578;28;20282;-78
2022/03/07 14:40:35;;;;;;;;;;;;;;;;;;5094769;28;20358;-78
2022/03/07 14:43:25;;;;;;;;;;;;;;;;;;5108370;28;19918;-78
2022/03/07 14:46:11;;;;;;;;;;;;;;;;;;5102813;28;19911;-78
2022/03/07 14:48:58;;;;;;;;;;;;;;;;;;5106613;28;20307;-78
2022/03/07 14:51:44;;;;;;;;;;;;;;;;;;5104896;28;19915;-78
2022/03/07 14:54:31;;;;;;;;;;;;;;;;;;5109044;28;19912;-78
2022/03/07 14:57:17;;;;;;;;;;;;;;;;;;5107890;28;19919;-77
2022/03/07 15:00:04;;;;;;;;;;;;;;;;;;5098779;28;20306;-78
2022/03/07 15:02:50;;;;;;;;;;;;;;;;;;5107640;28;19915;-78
2022/03/07 15:05:37;;;;;;;;;;;;;;;;;;5110301;28;19930;-78
2022/03/07 15:08:23;;;;;;;;;;;;;;;;;;5105360;28;19908;-78
2022/03/07 15:11:10;;;;;;;;;;;;;;;;;;5105856;28;19926;-78
2022/03/07 15:13:56;;;;;;;;;;;;;;;;;;5096362;28;19916;-78
2022/03/07 15:16:43;;;;;;;;;;;;;;;;;;5103449;28;20458;-77
2022/03/07 15:19:29;;;;;;;;;;;;;;;;;;5108112;28;19918;-77
2022/03/07 15:22:16;;;;;;;;;;;;;;;;;;5106445;28;19923;-78
2022/03/07 15:25:02;;;;;;;;;;;;;;;;;;5110050;28;20022;-78
2022/03/07 15:27:49;;;;;;;;;;;;;;;;;;5104580;28;20356;-78
2022/03/07 15:30:35;;;;;;;;;;;;;;;;;;5106714;28;20379;-83
2022/03/07 15:33:22;;;;;;;;;;;;;;;;;;5103610;28;19908;-79
2022/03/07 15:36:08;;;;;;;;;;;;;;;;;;5097970;28;19923;-79
2022/03/07 15:38:56;;;;;;;;;;;;;;;;;;5105773;28;20232;-80
2022/03/07 15:41:42;;;;;;;;;;;;;;;;;;5102199;28;19926;-79
2022/03/07 15:44:30;;;;;;;;;;;;;;;;;;5082050;28;19912;-80
2022/03/07 15:47:16;;;;;;;;;;;;;;;;;;5108854;28;19907;-81
2022/03/07 15:50:04;;;;;;;;;;;;;;;;;;5104196;28;19908;-79
2022/03/07 15:52:51;;;;;;;;;;;;;;;;;;5100255;28;19908;-79
2022/03/07 15:55:37;;;;;;;;;;;;;;;;;;5103533;28;20089;-79
2022/03/07 15:58:24;;;;;;;;;;;;;;;;;;5105765;28;20351;-79
2022/03/07 16:01:10;;;;;;;;;;;;;;;;;;5093634;28;19926;-78
2022/03/07 16:03:57;;;;;;;;;;;;;;;;;;5108368;28;19989;-78
2022/03/07 16:06:43;;;;;;;;;;;;;;;;;;5103712;28;20364;-79
2022/03/07 16:09:30;;;;;;;;;;;;;;;;;;5103491;28;20009;-78
2022/03/07 16:12:16;;;;;;;;;;;;;;;;;;5096376;28;19995;-78
2022/03/07 16:15:03;;;;;;;;;;;;;;;;;;5109211;28;19915;-79
2022/03/07 16:17:51;;;;;;;;;;;;;;;;;;5104495;28;20362;-78
2022/03/07 16:20:37;;;;;;;;;;;;;;;;;;5087096;28;19927;-78
2022/03/07 16:23:24;;;;;;;;;;;;;;;;;;5103657;28;19919;-79
2022/03/07 16:26:10;;;;;;;;;;;;;;;;;;5106808;28;19923;-79
2022/03/07 16:28:57;;;;;;;;;;;;;;;;;;5106169;28;19911;-78
2022/03/07 16:31:43;;;;;;;;;;;;;;;;;;5106709;28;19915;-79
2022/03/07 16:34:30;;;;;;;;;;;;;;;;;;5106043;28;19919;-78
2022/03/07 16:37:16;;;;;;;;;;;;;;;;;;5105527;28;19931;-80
2022/03/07 16:40:03;;;;;;;;;;;;;;;;;;5099759;28;19916;-78
2022/03/07 16:42:49;;;;;;;;;;;;;;;;;;5103006;28;19912;-79
2022/03/07 16:45:36;;;;;;;;;;;;;;;;;;5104273;28;19920;-78
2022/03/07 16:48:22;;;;;;;;;;;;;;;;;;5106479;28;19918;-78
2022/03/07 16:51:09;;;;;;;;;;;;;;;;;;5109763;28;19919;-78
2022/03/07 16:53:56;;;;;;;;;;;;;;;;;;5108202;28;19923;-78
2022/03/07 16:56:42;;;;;;;;;;;;;;;;;;5107624;28;19915;-79
2022/03/07 16:59:31;;;;;;;;;;;;;;;;;;5108909;28;19927;-79
2022/03/07 17:02:17;;;;;;;;;;;;;;;;;;5085684;28;19934;-78
2022/03/07 17:05:04;;;;;;;;;;;;;;;;;;5110238;28;19923;-78
2022/03/07 17:07:50;;;;;;;;;;;;;;;;;;5106795;28;20604;-79
2022/03/07 17:10:37;;;;;;;;;;;;;;;;;;5106116;28;19916;-79
2022/03/07 17:13:23;;;;;;;;;;;;;;;;;;5108775;28;19912;-79
2022/03/07 17:16:10;;;;;;;;;;;;;;;;;;5108820;28;19908;-80
2022/03/07 17:18:56;;;;;;;;;;;;;;;;;;5110284;28;19916;-79
2022/03/07 17:21:43;;;;;;;;;;;;;;;;;;5110273;28;20371;-79
2022/03/07 17:24:29;;;;;;;;;;;;;;;;;;5095279;28;19915;-82
2022/03/07 17:27:16;;;;;;;;;;;;;;;;;;5105579;28;19924;-81
2022/03/07 17:30:03;;;;;;;;;;;;;;;;;;5106008;28;19916;-81
2022/03/07 17:32:51;;;;;;;;;;;;;;;;;;5106506;28;19916;-82
2022/03/07 17:35:37;;;;;;;;;;;;;;;;;;5108233;27;19916;-81
2022/03/07 17:38:24;;;;;;;;;;;;;;;;;;5106275;28;19912;-81
2022/03/07 17:41:10;;;;;;;;;;;;;;;;;;5104591;28;20375;-81
2022/03/07 17:43:56;;;;;;;;;;;;;;;;;;5104418;28;19916;-81
2022/03/07 17:46:43;;;;;;;;;;;;;;;;;;5090301;28;19919;-86
2022/03/07 17:49:30;;;;;;;;;;;;;;;;;;5103869;28;19966;-82
2022/03/07 17:52:16;;;;;;;;;;;;;;;;;;5104751;28;19923;-83
2022/03/07 17:55:03;;;;;;;;;;;;;;;;;;5108172;28;19914;-80
2022/03/07 17:57:49;;;;;;;;;;;;;;;;;;5108143;28;19918;-81
2022/03/07 18:00:36;;;;;;;;;;;;;;;;;;5106369;28;19924;-83
2022/03/07 18:03:22;;;;;;;;;;;;;;;;;;5107303;28;19908;-84
2022/03/07 18:06:09;;;;;;;;;;;;;;;;;;5109198;28;19941;-77
2022/03/07 18:08:55;;;;;;;;;;;;;;;;;;5106225;28;19916;-77
2022/03/07 18:11:42;;;;;;;;;;;;;;;;;;5105931;28;20283;-77
2022/03/07 18:14:28;;;;;;;;;;;;;;;;;;5108392;28;19941;-78
2022/03/07 18:17:14;;;;;;;;;;;;;;;;;;5109096;28;19939;-77
2022/03/07 18:20:01;;;;;;;;;;;;;;;;;;5105113;28;19931;-77
2022/03/07 18:22:47;;;;;;;;;;;;;;;;;;5094481;28;19918;-76
2022/03/07 18:25:34;;;;;;;;;;;;;;;;;;5085917;27;20279;-84
2022/03/07 18:28:21;;;;;;;;;;;;;;;;;;5106220;28;19916;-80
2022/03/07 18:31:07;;;;;;;;;;;;;;;;;;5100322;28;19922;-82
2022/03/07 18:33:55;;;;;;;;;;;;;;;;;;5087394;28;21151;-77
2022/03/07 18:36:41;;;;;;;;;;;;;;;;;;5105122;28;19922;-78
2022/03/07 18:39:28;;;;;;;;;;;;;;;;;;5104463;28;20570;-79
2022/03/07 18:42:14;;;;;;;;;;;;;;;;;;5084337;28;20359;-78
2022/03/07 18:45:01;;;;;;;;;;;;;;;;;;5102622;28;19916;-81
2022/03/07 18:47:47;;;;;;;;;;;;;;;;;;5100991;28;19908;-81
2022/03/07 18:50:34;;;;;;;;;;;;;;;;;;5105043;28;20567;-79
2022/03/07 18:53:20;;;;;;;;;;;;;;;;;;5105032;27;19926;-76
2022/03/07 18:56:06;;;;;;;;;;;;;;;;;;5105483;28;19912;-80